Time;durP1;ratioP1;P1;durP2;ratioP2;P2;SDS_P1;SDS_P2;PMS_P1;PMS_P2;Temp;Humidity;BMP_temperature;BMP_pressure;BME280_temperature;BME280_humidity;BME280_pressure;Samples;Min_cycle;Max_cycle;Signal;HPM_P1;HPM_P2
2022/07/17 00:00:18;;;;;;;9.07;3.70;;;;;;;12.65;81.72;102640.56;5005992;28;20095;-69
2022/07/17 00:02:44;;;;;;;7.22;3.17;;;;;;;12.67;81.92;102643.09;5006981;28;20509;-69
2022/07/17 00:05:09;;;;;;;8.43;3.00;;;;;;;12.68;81.71;102642.09;5006787;28;20062;-69
2022/07/17 00:07:35;;;;;;;7.00;2.60;;;;;;;12.62;80.91;102632.72;5007163;28;20107;-70
2022/07/17 00:10:00;;;;;;;7.32;2.88;;;;;;;12.61;81.31;102641.16;5005303;28;20040;-70
2022/07/17 00:12:26;;;;;;;9.55;3.03;;;;;;;12.54;81.14;102635.59;5005144;28;20096;-69
2022/07/17 00:14:51;;;;;;;5.35;2.75;;;;;;;12.46;81.33;102631.06;5003499;28;20029;-69
2022/07/17 00:17:16;;;;;;;8.23;3.25;;;;;;;12.43;81.02;102631.50;5004532;28;20057;-69
2022/07/17 00:19:42;;;;;;;6.75;3.10;;;;;;;12.34;81.39;102637.34;5005490;28;20037;-69
2022/07/17 00:22:07;;;;;;;6.53;2.78;;;;;;;12.23;81.56;102635.97;5005695;28;20034;-69
2022/07/17 00:24:33;;;;;;;8.18;3.42;;;;;;;12.13;82.05;102636.31;5015903;28;20727;-70
2022/07/17 00:26:58;;;;;;;8.10;3.10;;;;;;;12.08;82.74;102633.28;5015735;28;20051;-69
2022/07/17 00:29:24;;;;;;;5.25;2.67;;;;;;;12.04;83.01;102633.88;5022238;28;20017;-70
2022/07/17 00:31:49;;;;;;;8.80;3.22;;;;;;;11.97;83.08;102632.97;5021965;28;20034;-69
2022/07/17 00:34:14;;;;;;;6.57;2.80;;;;;;;11.92;83.49;102645.44;5025353;28;20453;-69
2022/07/17 00:36:40;;;;;;;7.72;3.30;;;;;;;11.95;83.67;102645.00;5012546;28;20087;-69
2022/07/17 00:39:05;;;;;;;9.38;3.90;;;;;;;12.00;84.04;102635.31;5022326;28;20073;-69
2022/07/17 00:41:31;;;;;;;8.13;3.10;;;;;;;12.00;84.07;102635.31;5004632;28;20029;-69
2022/07/17 00:44:07;;;;;;;7.53;3.45;;;;;;;12.01;83.93;102637.03;5005486;28;20095;-69
2022/07/17 00:46:33;;;;;;;9.45;3.70;;;;;;;12.00;83.95;102646.34;5002525;28;20112;-69
2022/07/17 00:48:58;;;;;;;5.40;3.03;;;;;;;11.97;83.38;102639.34;5005187;28;20113;-69
2022/07/17 00:51:23;;;;;;;9.15;3.05;;;;;;;11.91;83.20;102649.25;5005429;28;20488;-69
2022/07/17 00:53:50;;;;;;;6.75;3.30;;;;;;;11.81;83.42;102651.41;5004962;28;20377;-69
2022/07/17 00:56:17;;;;;;;7.18;3.63;;;;;;;11.73;84.04;102650.69;5004412;28;20045;-69
2022/07/17 00:58:44;;;;;;;6.75;3.08;;;;;;;11.67;84.67;102647.66;5025774;28;20036;-69
2022/07/17 01:01:09;;;;;;;8.68;3.45;;;;;;;11.63;84.76;102648.25;5024132;28;20030;-69
2022/07/17 01:03:34;;;;;;;7.15;3.25;;;;;;;11.59;84.63;102645.00;5008170;28;20079;-69
2022/07/17 01:06:01;;;;;;;7.63;3.42;;;;;;;11.59;84.77;102644.16;5003480;28;20030;-69
2022/07/17 01:08:26;;;;;;;6.20;2.95;;;;;;;11.51;85.04;102633.28;5005347;28;20029;-70
2022/07/17 01:10:52;;;;;;;7.00;3.30;;;;;;;11.44;84.78;102631.28;4968336;28;1030798;-69
2022/07/17 01:13:18;;;;;;;7.90;3.60;;;;;;;11.37;85.00;102624.00;5004583;28;20596;-69
2022/07/17 01:15:44;;;;;;;8.40;3.50;;;;;;;11.31;85.31;102624.78;5003676;28;20105;-69
2022/07/17 01:18:11;;;;;;;6.35;3.35;;;;;;;11.28;85.54;102627.91;5009770;28;20038;-69
2022/07/17 01:20:39;;;;;;;8.73;3.80;;;;;;;11.32;85.92;102629.22;5006247;28;20488;-70
2022/07/17 01:23:05;;;;;;;9.55;4.22;;;;;;;11.33;85.62;102618.03;5003897;28;20068;-69
2022/07/17 01:25:31;;;;;;;6.90;3.75;;;;;;;11.32;86.13;102616.31;5006633;28;20123;-69
2022/07/17 01:27:56;;;;;;;7.47;4.20;;;;;;;11.34;85.96;102624.38;4988283;28;20495;-69
2022/07/17 01:30:21;;;;;;;7.30;3.53;;;;;;;11.37;85.92;102624.00;4985748;28;20650;-69
2022/07/17 01:32:47;;;;;;;7.38;3.50;;;;;;;11.41;85.90;102626.19;4986332;28;20037;-68
2022/07/17 01:35:14;;;;;;;6.88;3.25;;;;;;;11.37;85.53;102624.84;5013390;28;20424;-69
2022/07/17 01:37:40;;;;;;;8.90;3.65;;;;;;;11.36;85.49;102623.16;5025736;28;20388;-69
2022/07/17 01:40:07;;;;;;;6.75;3.67;;;;;;;11.33;85.13;102611.69;5004482;28;20401;-69
2022/07/17 01:42:32;;;;;;;7.15;4.15;;;;;;;11.25;85.24;102620.88;5015552;28;20068;-69
2022/07/17 01:44:57;;;;;;;8.15;4.43;;;;;;;11.20;85.90;102611.50;5007661;28;20368;-69
2022/07/17 01:47:23;;;;;;;8.57;4.07;;;;;;;11.14;85.53;102615.88;5011402;28;20037;-69
2022/07/17 01:49:51;;;;;;;10.10;4.47;;;;;;;11.09;85.88;102621.09;5017641;28;20547;-68
2022/07/17 01:52:17;;;;;;;6.65;4.13;;;;;;;11.06;86.39;102616.00;5025081;28;20029;-69
2022/07/17 01:54:43;;;;;;;9.15;4.03;;;;;;;11.04;86.46;102632.66;5017337;28;20045;-69
2022/07/17 01:57:09;;;;;;;7.90;4.40;;;;;;;11.06;86.78;102629.75;5003579;28;20050;-69
2022/07/17 01:59:35;;;;;;;7.82;3.97;;;;;;;11.12;86.30;102631.72;5003018;28;20036;-69
2022/07/17 02:02:00;;;;;;;7.88;3.90;;;;;;;11.16;86.09;102630.31;5004382;28;20033;-69
2022/07/17 02:04:26;;;;;;;7.20;3.88;;;;;;;11.20;85.57;102634.34;5024835;28;20457;-69
2022/07/17 02:06:55;;;;;;;9.52;3.75;;;;;;;11.14;85.96;102627.72;5004834;28;20038;-69
2022/07/17 02:09:21;;;;;;;7.88;3.53;;;;;;;11.17;85.75;102629.25;5005098;28;20589;-69
2022/07/17 02:11:46;;;;;;;7.03;3.58;;;;;;;11.14;85.93;102630.47;5002447;28;20053;-69
2022/07/17 02:14:11;;;;;;;10.57;4.57;;;;;;;11.15;86.50;102625.81;5004983;28;20048;-69
2022/07/17 02:16:37;;;;;;;7.45;3.75;;;;;;;11.17;87.00;102635.59;5005781;28;20053;-70
2022/07/17 02:19:02;;;;;;;8.95;4.13;;;;;;;11.11;86.47;102630.88;5004219;28;20037;-69
2022/07/17 02:21:27;;;;;;;8.68;4.00;;;;;;;11.16;86.93;102631.16;5004334;28;20532;-69
2022/07/17 02:23:53;;;;;;;7.13;3.30;;;;;;;11.13;86.21;102628.78;5005171;28;20092;-69
2022/07/17 02:26:18;;;;;;;8.35;4.00;;;;;;;11.14;86.63;102624.97;5002944;28;20385;-69
2022/07/17 02:28:43;;;;;;;7.47;3.90;;;;;;;11.07;86.58;102623.19;5003268;28;20026;-69
2022/07/17 02:31:09;;;;;;;9.88;3.90;;;;;;;11.04;86.97;102626.31;5003786;28;20451;-69
2022/07/17 02:33:34;;;;;;;10.13;3.97;;;;;;;11.05;87.63;102636.25;5013304;28;20026;-69
2022/07/17 02:36:01;;;;;;;9.00;4.25;;;;;;;11.06;86.77;102629.75;5004254;28;20113;-68
2022/07/17 02:38:26;;;;;;;8.40;3.50;;;;;;;11.06;86.50;102635.25;5001907;28;20096;-69
2022/07/17 02:40:52;;;;;;;8.38;3.92;;;;;;;11.00;86.26;102624.97;5002610;28;20037;-69
2022/07/17 02:43:17;;;;;;;8.23;4.22;;;;;;;10.99;87.17;102623.28;5014074;28;20034;-68
2022/07/17 02:45:42;;;;;;;8.38;3.92;;;;;;;10.95;87.40;102621.94;5010251;28;20050;-69
2022/07/17 02:48:08;;;;;;;8.05;3.97;;;;;;;10.88;87.05;102608.13;5014779;28;20032;-70
2022/07/17 02:50:33;;;;;;;7.32;3.97;;;;;;;10.87;86.99;102615.50;5006640;28;20112;-69
2022/07/17 02:52:58;;;;;;;8.40;4.10;;;;;;;10.85;87.36;102614.00;5003789;28;20014;-69
2022/07/17 02:55:24;;;;;;;9.20;3.83;;;;;;;10.82;87.10;102615.22;5003779;28;20038;-69
2022/07/17 02:57:49;;;;;;;6.80;4.15;;;;;;;10.86;87.22;102619.31;5005716;28;20014;-69
2022/07/17 03:00:17;;;;;;;8.32;4.57;;;;;;;10.78;87.13;102619.38;5007660;28;20092;-69
2022/07/17 03:02:45;;;;;;;9.77;4.40;;;;;;;10.75;87.44;102625.28;5008073;28;20113;-69
2022/07/17 03:05:12;;;;;;;6.75;4.05;;;;;;;10.72;87.14;102624.78;5007332;28;20544;-69
2022/07/17 03:07:37;;;;;;;8.32;3.90;;;;;;;10.66;86.98;102629.16;5005259;28;20042;-69
2022/07/17 03:10:04;;;;;;;9.68;4.88;;;;;;;10.59;87.35;102637.31;5007157;28;20399;-68
2022/07/17 03:12:29;;;;;;;6.88;3.80;;;;;;;10.58;87.77;102637.47;5007316;28;20046;-69
2022/07/17 03:14:54;;;;;;;9.05;4.35;;;;;;;10.54;87.59;102630.63;5007297;28;20487;-70
2022/07/17 03:17:20;;;;;;;7.70;4.28;;;;;;;10.51;88.10;102640.13;5007325;28;20068;-69
2022/07/17 03:19:45;;;;;;;8.18;4.03;;;;;;;10.54;87.71;102641.63;5007461;28;20021;-69
2022/07/17 03:22:10;;;;;;;8.75;4.47;;;;;;;10.50;87.94;102632.91;5006595;28;20558;-69
2022/07/17 03:24:36;;;;;;;7.60;4.30;;;;;;;10.49;87.99;102631.22;5005762;28;20061;-69
2022/07/17 03:27:01;;;;;;;8.75;4.53;;;;;;;10.53;88.44;102629.78;5006168;28;20057;-70
2022/07/17 03:29:27;;;;;;;7.93;4.50;;;;;;;10.56;88.42;102632.16;5007553;28;20471;-69
2022/07/17 03:31:52;;;;;;;10.40;4.32;;;;;;;10.55;88.06;102632.38;5007177;28;20034;-69
2022/07/17 03:34:17;;;;;;;8.75;4.40;;;;;;;10.52;88.07;102635.47;5007218;28;20179;-69
2022/07/17 03:36:43;;;;;;;8.18;4.13;;;;;;;10.46;88.43;102637.06;5005926;28;20049;-69
2022/07/17 03:39:08;;;;;;;9.48;4.28;;;;;;;10.42;88.77;102627.50;5006353;28;20088;-69
2022/07/17 03:41:34;;;;;;;8.10;4.15;;;;;;;10.42;88.84;102622.00;5006619;28;20431;-69
2022/07/17 03:44:00;;;;;;;10.95;4.40;;;;;;;10.42;88.89;102632.13;5012292;28;20032;-69
2022/07/17 03:46:25;;;;;;;10.23;4.53;;;;;;;10.46;89.27;102630.72;5006585;28;20021;-69
2022/07/17 03:48:51;;;;;;;10.57;4.70;;;;;;;10.46;89.42;102628.84;5006959;28;20034;-69
2022/07/17 03:51:16;;;;;;;8.98;4.38;;;;;;;10.44;89.58;102627.28;5007083;28;20109;-69
2022/07/17 03:53:41;;;;;;;8.82;4.50;;;;;;;10.41;89.71;102620.28;5009644;28;20021;-69
2022/07/17 03:56:07;;;;;;;8.75;4.90;;;;;;;10.46;89.87;102625.22;5025450;28;20033;-69
2022/07/17 03:58:33;;;;;;;8.52;4.40;;;;;;;10.48;89.59;102632.22;5018445;28;20018;-69
2022/07/17 04:00:59;;;;;;;12.05;5.85;;;;;;;10.51;89.63;102637.38;5013246;28;20136;-69
2022/07/17 04:03:24;;;;;;;9.85;4.22;;;;;;;10.53;89.18;102654.50;5026872;28;20032;-69
2022/07/17 04:05:49;;;;;;;7.60;4.15;;;;;;;10.56;87.95;102645.06;5010177;28;20109;-69
2022/07/17 04:08:15;;;;;;;9.90;4.60;;;;;;;10.58;88.21;102645.72;5003995;28;20412;-69
2022/07/17 04:10:40;;;;;;;9.63;4.40;;;;;;;10.60;88.37;102654.63;5010106;28;20544;-69
2022/07/17 04:13:06;;;;;;;8.18;4.53;;;;;;;10.57;88.15;102646.75;5020093;28;20021;-69
2022/07/17 04:15:49;;;;;;;7.80;4.50;;;;;;;10.58;89.11;102651.19;5006380;28;20479;-69
2022/07/17 04:18:15;;;;;;;7.80;4.10;;;;;;;10.55;88.65;102652.44;4990777;28;20395;-69
2022/07/17 04:20:40;;;;;;;9.10;4.95;;;;;;;10.55;88.62;102651.59;5004876;28;20116;-70
2022/07/17 04:23:05;;;;;;;7.13;4.50;;;;;;;10.51;88.69;102651.09;5005611;28;20161;-70
2022/07/17 04:25:31;;;;;;;10.60;4.93;;;;;;;10.52;89.06;102660.19;5004623;28;20041;-69
2022/07/17 04:27:56;;;;;;;8.57;4.50;;;;;;;10.53;88.92;102659.16;5006131;28;20052;-69
2022/07/17 04:30:22;;;;;;;8.32;4.72;;;;;;;10.53;89.61;102660.00;5004807;28;20109;-69
2022/07/17 04:32:48;;;;;;;9.32;5.00;;;;;;;10.63;89.43;102648.75;5011808;28;20064;-68
2022/07/17 04:35:13;;;;;;;12.00;4.90;;;;;;;10.81;89.27;102652.00;5006694;28;20085;-70
2022/07/17 04:37:38;;;;;;;10.65;4.80;;;;;;;11.08;88.41;102642.25;5005834;28;20018;-69
2022/07/17 04:40:04;;;;;;;8.98;5.00;;;;;;;11.11;88.53;102652.88;5003902;28;20025;-69
2022/07/17 04:42:30;;;;;;;10.05;5.13;;;;;;;11.10;88.24;102651.16;5006504;28;20038;-69
2022/07/17 04:44:55;;;;;;;9.90;4.90;;;;;;;11.13;88.50;102659.03;5023310;28;20026;-69
2022/07/17 04:47:20;;;;;;;8.18;4.63;;;;;;;11.10;88.71;102656.66;5026329;28;20514;-70
2022/07/17 04:49:45;;;;;;;11.40;5.32;;;;;;;11.12;89.19;102656.47;5010783;28;20119;-70
2022/07/17 04:52:11;;;;;;;12.07;6.32;;;;;;;11.15;89.20;102661.56;5024255;28;20021;-69
2022/07/17 04:54:36;;;;;;;9.90;5.65;;;;;;;11.12;89.13;102651.81;5004629;28;20026;-69
2022/07/17 04:57:01;;;;;;;9.35;5.38;;;;;;;11.17;89.26;102668.59;5003344;28;20156;-70
2022/07/17 04:59:26;;;;;;;10.10;5.50;;;;;;;11.18;88.55;102669.44;5004878;28;20138;-69
2022/07/17 05:01:52;;;;;;;13.27;6.10;;;;;;;11.21;88.88;102671.84;5004948;28;20026;-69
2022/07/17 05:04:17;;;;;;;12.32;5.93;;;;;;;11.24;88.82;102665.94;5006046;28;20033;-68
2022/07/17 05:06:42;;;;;;;13.13;6.28;;;;;;;11.31;88.97;102668.78;5005835;28;20392;-69
2022/07/17 05:09:08;;;;;;;10.95;6.13;;;;;;;11.32;89.29;102671.34;5004552;28;20158;-69
2022/07/17 05:11:33;;;;;;;12.18;6.47;;;;;;;11.35;89.45;102665.47;5023438;28;20052;-69
2022/07/17 05:13:58;;;;;;;13.07;6.35;;;;;;;11.41;89.50;102661.94;5003802;28;20113;-69
2022/07/17 05:16:23;;;;;;;14.98;6.88;;;;;;;11.46;90.30;102660.53;5007269;28;20044;-69
2022/07/17 05:18:49;;;;;;;14.75;7.07;;;;;;;11.53;90.40;102666.97;5005454;28;20667;-69
2022/07/17 05:21:14;;;;;;;14.45;7.35;;;;;;;11.60;89.82;102674.22;5004769;28;20044;-69
2022/07/17 05:23:40;;;;;;;13.90;6.97;;;;;;;11.67;89.22;102663.31;5005189;28;20030;-69
2022/07/17 05:26:05;;;;;;;13.95;7.53;;;;;;;11.70;89.07;102657.41;5002542;28;20045;-70
2022/07/17 05:28:31;;;;;;;15.45;7.38;;;;;;;11.75;89.78;102660.44;5016050;28;20041;-70
2022/07/17 05:30:56;;;;;;;15.32;8.35;;;;;;;11.84;89.80;102669.47;5024587;28;20033;-69
2022/07/17 05:33:21;;;;;;;13.30;7.65;;;;;;;11.89;89.46;102667.84;5009139;28;20030;-69
2022/07/17 05:35:46;;;;;;;18.08;8.40;;;;;;;11.92;89.15;102661.94;5007740;28;20030;-68
2022/07/17 05:38:12;;;;;;;17.48;9.18;;;;;;;12.01;89.35;102667.31;5025730;28;20026;-69
2022/07/17 05:40:37;;;;;;;17.58;9.02;;;;;;;12.10;89.78;102669.75;5022477;28;20109;-69
2022/07/17 05:43:02;;;;;;;16.52;8.52;;;;;;;12.15;89.74;102661.75;5004333;28;20061;-69
2022/07/17 05:45:28;;;;;;;18.70;9.23;;;;;;;12.19;89.85;102660.31;5001579;28;20377;-70
2022/07/17 05:47:53;;;;;;;17.33;8.65;;;;;;;12.25;89.48;102666.94;5004499;28;20021;-69
2022/07/17 05:50:19;;;;;;;19.38;9.68;;;;;;;12.30;89.53;102664.44;5003820;28;20022;-70
2022/07/17 05:52:44;;;;;;;15.85;9.43;;;;;;;12.39;88.92;102654.97;5005751;28;20014;-70
2022/07/17 05:55:09;;;;;;;18.40;9.57;;;;;;;12.50;88.69;102667.38;5002782;28;20053;-70
2022/07/17 05:57:34;;;;;;;17.45;8.80;;;;;;;12.52;88.30;102664.41;5017713;28;20033;-70
2022/07/17 06:00:00;;;;;;;18.67;10.05;;;;;;;12.56;88.67;102654.69;5002202;28;20037;-70
2022/07/17 06:02:25;;;;;;;17.40;10.10;;;;;;;12.65;88.16;102661.75;5017876;28;20041;-69
2022/07/17 06:04:51;;;;;;;20.52;10.45;;;;;;;12.72;88.56;102652.50;5024638;28;20494;-69
2022/07/17 06:07:16;;;;;;;22.50;11.27;;;;;;;12.77;88.19;102651.03;5006253;28;20064;-69
2022/07/17 06:09:41;;;;;;;21.48;11.15;;;;;;;12.82;87.41;102641.09;5004307;28;20026;-70
2022/07/17 06:12:07;;;;;;;23.00;11.73;;;;;;;12.87;87.69;102652.38;5005013;28;20045;-69
2022/07/17 06:14:32;;;;;;;20.60;10.50;;;;;;;12.96;87.02;102642.88;5005143;28;20116;-70
2022/07/17 06:16:57;;;;;;;19.15;10.02;;;;;;;13.05;88.35;102631.72;5004352;28;20364;-70
2022/07/17 06:19:23;;;;;;;22.25;10.32;;;;;;;13.12;87.35;102629.81;5003794;28;20049;-70
2022/07/17 06:21:48;;;;;;;19.38;9.98;;;;;;;13.26;86.84;102630.78;5003811;28;20041;-70
2022/07/17 06:24:13;;;;;;;17.90;10.13;;;;;;;13.39;85.21;102642.75;5004776;28;20037;-70
2022/07/17 06:26:38;;;;;;;19.83;9.65;;;;;;;13.53;83.94;102648.28;5003004;28;20481;-69
2022/07/17 06:29:04;;;;;;;23.20;10.07;;;;;;;13.60;83.46;102649.19;5002830;28;20441;-71
2022/07/17 06:31:29;;;;;;;20.30;9.27;;;;;;;13.72;83.63;102661.31;5003384;28;20034;-70
2022/07/17 06:33:55;;;;;;;18.77;9.07;;;;;;;13.84;82.84;102662.44;5002583;28;20058;-71
2022/07/17 06:36:20;;;;;;;27.27;9.52;;;;;;;13.94;81.29;102662.91;5003581;28;20369;-70
2022/07/17 06:38:45;;;;;;;22.05;8.40;;;;;;;14.06;80.85;102654.00;5004350;28;20119;-70
2022/07/17 06:41:10;;;;;;;21.17;9.02;;;;;;;14.14;80.93;102662.06;5002811;28;20096;-70
2022/07/17 06:43:36;;;;;;;21.45;9.63;;;;;;;14.26;80.99;102654.88;5003923;28;20034;-70
2022/07/17 06:46:01;;;;;;;18.50;8.82;;;;;;;14.43;76.74;102667.19;5002469;28;20180;-70
2022/07/17 06:48:27;;;;;;;19.35;9.45;;;;;;;14.58;76.10;102671.72;5010520;28;20668;-70
2022/07/17 06:50:52;;;;;;;21.02;8.73;;;;;;;14.72;74.81;102676.16;5003459;28;20053;-69
2022/07/17 06:53:17;;;;;;;17.52;8.77;;;;;;;14.77;75.76;102681.91;4999698;28;20038;-71
2022/07/17 06:55:43;;;;;;;17.77;9.10;;;;;;;14.84;76.12;102679.13;5003344;28;20033;-71
2022/07/17 06:58:08;;;;;;;18.02;9.13;;;;;;;14.96;75.79;102680.19;5019118;28;20469;-70
2022/07/17 07:00:33;;;;;;;16.27;8.73;;;;;;;14.97;77.72;102679.97;5011185;28;20690;-70
2022/07/17 07:02:59;;;;;;;19.00;9.23;;;;;;;15.05;74.67;102684.41;5003869;28;20018;-70
2022/07/17 07:05:24;;;;;;;24.58;11.05;;;;;;;15.10;77.01;102689.31;5001997;28;20041;-70
2022/07/17 07:07:50;;;;;;;17.13;7.97;;;;;;;15.25;72.79;102689.91;5004365;28;20566;-68
2022/07/17 07:10:16;;;;;;;20.42;8.80;;;;;;;15.36;72.45;102703.09;5000878;28;20125;-68
2022/07/17 07:12:42;;;;;;;17.50;7.93;;;;;;;15.45;73.47;102707.31;5002928;28;20385;-68
2022/07/17 07:15:08;;;;;;;21.25;8.70;;;;;;;15.50;71.68;102707.50;5001916;28;20041;-75
2022/07/17 07:17:34;;;;;;;20.00;8.68;;;;;;;15.57;73.14;102707.50;5004083;28;20976;-68
2022/07/17 07:20:04;;;;;;;21.98;9.18;;;;;;;15.68;74.02;102703.22;5001663;28;20058;-68
2022/07/17 07:22:30;;;;;;;19.27;8.55;;;;;;;15.77;73.37;102701.91;5003819;28;20439;-68
2022/07/17 07:24:55;;;;;;;22.83;8.52;;;;;;;15.83;75.12;102703.81;5002286;28;20022;-69
2022/07/17 07:27:21;;;;;;;24.20;9.73;;;;;;;15.96;73.04;102692.63;5004032;28;20026;-69
2022/07/17 07:29:46;;;;;;;20.83;7.10;;;;;;;16.02;69.45;102700.09;5002805;28;20080;-68
2022/07/17 07:32:11;;;;;;;24.35;7.55;;;;;;;16.14;70.34;102699.38;5002953;28;20512;-69
2022/07/17 07:34:37;;;;;;;13.73;6.75;;;;;;;16.27;70.09;102693.72;5003019;28;20057;-69
2022/07/17 07:37:02;;;;;;;17.85;7.00;;;;;;;16.47;68.75;102696.34;5003558;28;20009;-69
2022/07/17 07:39:27;;;;;;;17.98;6.63;;;;;;;16.64;66.76;102694.75;5004432;28;20021;-69
2022/07/17 07:41:52;;;;;;;15.75;6.40;;;;;;;16.81;67.63;102695.88;5009837;28;20065;-68
2022/07/17 07:44:18;;;;;;;15.80;7.00;;;;;;;16.90;65.23;102688.13;5005021;28;20117;-68
2022/07/17 07:46:43;;;;;;;19.33;6.95;;;;;;;17.09;65.35;102692.63;5005820;28;20519;-69
2022/07/17 07:49:08;;;;;;;17.63;6.68;;;;;;;17.33;64.62;102692.78;5006211;28;20053;-69
2022/07/17 07:51:34;;;;;;;16.60;6.80;;;;;;;17.71;66.62;102691.72;5010682;28;20021;-69
2022/07/17 07:53:59;;;;;;;15.82;5.97;;;;;;;17.87;63.42;102702.22;5015401;28;21142;-68
2022/07/17 07:56:24;;;;;;;15.77;6.88;;;;;;;17.74;64.01;102700.47;5006656;28;20034;-69
2022/07/17 07:58:50;;;;;;;16.75;6.50;;;;;;;17.70;64.93;102703.91;5006315;28;20041;-69
2022/07/17 08:01:15;;;;;;;19.08;5.88;;;;;;;17.68;66.41;102701.34;5019032;28;20022;-69
2022/07/17 08:03:40;;;;;;;16.08;6.38;;;;;;;17.61;64.52;102695.03;5014380;28;20045;-69
2022/07/17 08:06:06;;;;;;;14.50;6.28;;;;;;;17.59;66.12;102705.56;5012839;28;21246;-69
2022/07/17 08:08:31;;;;;;;16.25;6.50;;;;;;;17.52;63.21;102704.75;5009641;28;20026;-69
2022/07/17 08:10:56;;;;;;;19.80;7.43;;;;;;;17.54;64.73;102692.34;5012746;28;20046;-69
2022/07/17 08:13:22;;;;;;;19.52;8.48;;;;;;;17.58;63.84;102696.34;5006309;28;20070;-70
2022/07/17 08:15:47;;;;;;;18.45;7.13;;;;;;;17.63;63.56;102702.03;5006373;28;20052;-69
2022/07/17 08:18:12;;;;;;;15.68;7.63;;;;;;;17.71;63.97;102703.69;5006462;28;20118;-69
2022/07/17 08:20:38;;;;;;;16.05;7.13;;;;;;;17.84;65.68;102708.22;5006066;28;20036;-69
2022/07/17 08:23:03;;;;;;;14.75;7.40;;;;;;;17.97;66.02;102702.50;5004187;28;20485;-69
2022/07/17 08:25:29;;;;;;;16.45;7.28;;;;;;;18.01;62.96;102698.16;5005446;28;20037;-69
2022/07/17 08:27:54;;;;;;;19.13;7.07;;;;;;;18.11;65.78;102704.00;5006706;28;20049;-69
2022/07/17 08:30:19;;;;;;;17.45;6.55;;;;;;;18.22;62.14;102698.72;5006098;28;20400;-69
2022/07/17 08:32:45;;;;;;;16.30;6.38;;;;;;;18.25;61.67;102695.44;5004463;28;20116;-69
2022/07/17 08:35:11;;;;;;;18.55;6.55;;;;;;;18.26;60.83;102700.81;5006053;28;20124;-69
2022/07/17 08:37:52;;;;;;;13.15;5.90;;;;;;;18.40;63.04;102699.53;5005870;28;21084;-69
2022/07/17 08:40:20;;;;;;;16.45;7.20;;;;;;;18.48;59.93;102698.31;5005383;28;20069;-68
2022/07/17 08:42:45;;;;;;;15.82;6.00;;;;;;;18.50;59.24;102698.06;5005682;28;20397;-69
2022/07/17 08:45:11;;;;;;;14.48;6.22;;;;;;;18.58;60.29;102704.13;5005802;28;20069;-69
2022/07/17 08:47:38;;;;;;;13.35;6.15;;;;;;;18.67;61.95;102702.72;5006124;28;20034;-68
2022/07/17 08:50:03;;;;;;;15.20;6.82;;;;;;;18.64;61.55;102703.19;5005128;28;20033;-69
2022/07/17 08:52:29;;;;;;;16.90;6.00;;;;;;;18.72;60.43;102698.41;5004839;28;20033;-69
2022/07/17 08:54:55;;;;;;;15.55;5.40;;;;;;;18.77;59.36;102695.75;5003556;28;20119;-69
2022/07/17 08:57:20;;;;;;;14.82;5.50;;;;;;;18.82;58.60;102693.91;5006615;28;20025;-69
2022/07/17 08:59:49;;;;;;;13.48;4.80;;;;;;;18.99;60.16;102694.03;5005154;28;20494;-69
2022/07/17 09:02:14;;;;;;;16.15;4.63;;;;;;;19.10;59.82;102690.41;5006505;28;20026;-69
2022/07/17 09:04:53;;;;;;;16.00;4.97;;;;;;;19.14;57.66;102691.63;5005993;28;20380;-71
2022/07/17 09:07:18;;;;;;;16.55;4.97;;;;;;;19.30;57.92;102692.81;5003411;28;20129;-71
2022/07/17 09:09:52;;;;;;;11.95;4.55;;;;;;;19.38;55.79;102691.59;5006002;28;20097;-70
2022/07/17 09:12:24;;;;;;;12.15;4.30;;;;;;;19.42;56.68;102692.81;5003287;28;20076;-70
2022/07/17 09:14:50;;;;;;;12.25;4.68;;;;;;;19.58;56.38;102697.63;5003609;28;20121;-70
2022/07/17 09:17:15;;;;;;;10.88;4.25;;;;;;;19.66;56.25;102693.59;5003248;28;20120;-70
2022/07/17 09:19:42;;;;;;;12.93;4.65;;;;;;;19.76;54.17;102690.19;5002413;28;20057;-70
2022/07/17 09:22:10;;;;;;;11.40;3.87;;;;;;;20.06;55.57;102687.16;5004304;28;20132;-70
2022/07/17 09:24:50;;;;;;;12.52;4.07;;;;;;;20.18;54.50;102687.97;5004333;28;20034;-70
2022/07/17 09:27:30;;;;;;;12.60;4.30;;;;;;;20.37;54.31;102692.19;5005163;28;20358;-70
2022/07/17 09:29:59;;;;;;;12.02;4.15;;;;;;;20.37;49.39;102696.94;5002457;28;20065;-70
2022/07/17 09:32:30;;;;;;;10.20;4.53;;;;;;;20.66;51.57;102684.66;5004724;28;20349;-70
2022/07/17 09:34:58;;;;;;;12.77;4.20;;;;;;;21.32;49.60;102684.00;4995198;28;20033;-71
2022/07/17 09:37:24;;;;;;;;;;;;;;;22.89;49.07;102676.47;5009729;28;20053;-71
2022/07/17 09:39:51;;;;;;;10.55;4.35;;;;;;;25.25;39.61;102673.97;5001368;28;20276;-70
2022/07/17 09:42:32;;;;;;;9.80;3.65;;;;;;;26.77;39.73;102671.41;5007838;28;20129;-70
2022/07/17 09:45:06;;;;;;;9.88;3.38;;;;;;;27.88;34.07;102674.09;5009204;28;20033;-71
2022/07/17 09:47:33;;;;;;;8.98;3.53;;;;;;;29.02;32.20;102685.28;5010398;28;20048;-71
2022/07/17 09:50:01;;;;;;;19.77;3.40;;;;;;;30.39;30.85;102685.16;5024587;28;20388;-71
2022/07/17 09:52:29;;;;;;;13.10;3.78;;;;;;;31.01;29.16;102684.41;5001360;28;20140;-70
2022/07/17 09:54:55;;;;;;;13.82;4.15;;;;;;;31.63;27.85;102684.38;5008055;28;20033;-69
2022/07/17 09:57:25;;;;;;;10.93;4.03;;;;;;;32.41;26.33;102681.66;5008914;28;20036;-70
2022/07/17 09:59:53;;;;;;;9.98;3.55;;;;;;;32.01;26.65;102678.94;5002897;28;20033;-70
2022/07/17 10:02:20;;;;;;;11.63;3.15;;;;;;;32.64;26.41;102696.50;5012417;28;20060;-70
2022/07/17 10:04:46;;;;;;;8.50;2.75;;;;;;;33.58;25.25;102690.88;5024832;28;20025;-70
2022/07/17 10:07:12;;;;;;;13.77;2.90;;;;;;;34.07;24.48;102694.94;5023889;28;20609;-70
2022/07/17 10:09:38;;;;;;;9.50;2.67;;;;;;;33.94;23.15;102690.34;5011821;28;20110;-73
2022/07/17 10:12:05;;;;;;;5.70;2.60;;;;;;;33.97;22.39;102697.38;4984701;28;20092;-70
2022/07/17 10:14:32;;;;;;;8.18;2.78;;;;;;;34.19;22.34;102691.31;4993405;28;20045;-72
2022/07/17 10:17:08;;;;;;;12.05;3.13;;;;;;;35.18;24.83;102692.50;5004637;28;20033;-72
2022/07/17 10:20:04;;;;;;;9.00;3.25;;;;;;;34.86;22.68;102689.34;5003862;28;20500;-73
2022/07/17 10:22:44;;;;;;;11.27;3.25;;;;;;;34.59;23.59;102687.97;5001302;28;20041;-72
2022/07/17 10:25:14;;;;;;;10.65;3.10;;;;;;;34.28;23.28;102685.53;4984308;28;20026;-73
2022/07/17 10:27:47;;;;;;;8.40;3.00;;;;;;;33.85;23.63;102694.38;4996112;28;20026;-70
2022/07/17 10:30:13;;;;;;;12.52;3.67;;;;;;;34.39;23.63;102683.91;4999392;28;20041;-70
2022/07/17 10:32:39;;;;;;;8.43;2.80;;;;;;;34.79;22.83;102686.25;5001289;28;20029;-71
2022/07/17 10:35:05;;;;;;;12.27;3.60;;;;;;;34.42;21.93;102685.22;5013322;28;20039;-71
2022/07/17 10:37:37;;;;;;;9.23;2.87;;;;;;;34.68;23.86;102682.16;5009629;28;20025;-71
2022/07/17 10:40:06;;;;;;;8.23;2.40;;;;;;;35.13;23.00;102681.31;5011680;28;20394;-71
2022/07/17 10:42:57;;;;;;;8.10;2.30;;;;;;;35.03;23.33;102677.75;5024252;28;20039;-70
2022/07/17 10:45:44;;;;;;;7.80;2.25;;;;;;;35.54;22.95;102680.31;5024247;28;20041;-71
2022/07/17 10:48:12;;;;;;;7.40;1.90;;;;;;;34.70;22.42;102685.50;5018363;28;20180;-71
2022/07/17 10:50:46;;;;;;;7.78;2.20;;;;;;;33.62;22.91;102680.47;5002766;28;20432;-69
2022/07/17 10:53:23;;;;;;;6.28;2.00;;;;;;;32.34;25.57;102675.63;4985127;28;20180;-70
2022/07/17 10:56:08;;;;;;;10.32;2.00;;;;;;;30.97;29.04;102678.56;4984460;28;20085;-70
2022/07/17 10:58:41;;;;;;;8.18;2.28;;;;;;;29.86;30.15;102683.00;4994933;28;20065;-70
2022/07/17 11:01:17;;;;;;;8.73;1.92;;;;;;;29.28;31.72;102677.97;5002980;28;20671;-70
2022/07/17 11:03:47;;;;;;;10.38;2.45;;;;;;;28.49;31.96;102675.16;5002316;28;20034;-70
2022/07/17 11:06:24;;;;;;;9.45;2.33;;;;;;;27.89;31.56;102669.28;5003682;28;20022;-71
2022/07/17 11:08:52;;;;;;;8.55;2.30;;;;;;;27.55;30.75;102669.44;5001081;28;20021;-70
2022/07/17 11:11:21;;;;;;;8.80;2.15;;;;;;;27.16;34.90;102674.09;4999907;28;20042;-72
2022/07/17 11:13:46;;;;;;;8.10;2.55;;;;;;;26.89;34.61;102674.66;5005000;28;20113;-72
2022/07/17 11:16:12;;;;;;;9.35;3.13;;;;;;;26.56;33.03;102672.69;5001975;28;20125;-70
2022/07/17 11:18:46;;;;;;;9.63;2.50;;;;;;;26.68;34.85;102669.50;5007871;28;20059;-70